sensor_id;sensor_type;location;lat;lon;timestamp;temperature;humidity
4249;DHT22;8404;48.752;12.922;2022-12-07T00:01:34;3.30;99.90
4249;DHT22;8404;48.752;12.922;2022-12-07T00:04:04;3.30;99.90
4249;DHT22;8404;48.752;12.922;2022-12-07T00:06:35;3.30;99.90
4249;DHT22;8404;48.752;12.922;2022-12-07T00:09:06;3.40;99.90
4249;DHT22;8404;48.752;12.922;2022-12-07T00:11:34;3.40;99.90
4249;DHT22;8404;48.752;12.922;2022-12-07T00:14:04;3.40;99.90
4249;DHT22;8404;48.752;12.922;2022-12-07T00:16:34;3.30;99.90
4249;DHT22;8404;48.752;12.922;2022-12-07T00:19:02;3.30;99.90
4249;DHT22;8404;48.752;12.922;2022-12-07T00:21:32;3.30;99.90
4249;DHT22;8404;48.752;12.922;2022-12-07T00:24:01;3.30;99.90
4249;DHT22;8404;48.752;12.922;2022-12-07T00:26:32;3.30;99.90
4249;DHT22;8404;48.752;12.922;2022-12-07T00:29:04;3.30;99.90
4249;DHT22;8404;48.752;12.922;2022-12-07T00:31:34;3.30;99.90
4249;DHT22;8404;48.752;12.922;2022-12-07T00:34:06;3.40;99.90
4249;DHT22;8404;48.752;12.922;2022-12-07T00:36:34;3.30;99.90
4249;DHT22;8404;48.752;12.922;2022-12-07T00:39:03;3.30;99.90
4249;DHT22;8404;48.752;12.922;2022-12-07T00:41:32;3.30;99.90
4249;DHT22;8404;48.752;12.922;2022-12-07T00:44:00;3.30;99.90
4249;DHT22;8404;48.752;12.922;2022-12-07T00:46:28;3.30;99.90
4249;DHT22;8404;48.752;12.922;2022-12-07T00:48:57;3.30;99.90
4249;DHT22;8404;48.752;12.922;2022-12-07T00:51:25;3.40;99.90
4249;DHT22;8404;48.752;12.922;2022-12-07T00:53:54;3.40;99.90
4249;DHT22;8404;48.752;12.922;2022-12-07T00:56:23;3.30;99.90
4249;DHT22;8404;48.752;12.922;2022-12-07T00:58:55;3.40;99.90
4249;DHT22;8404;48.752;12.922;2022-12-07T01:01:25;3.30;99.90
4249;DHT22;8404;48.752;12.922;2022-12-07T01:03:54;3.30;99.90
4249;DHT22;8404;48.752;12.922;2022-12-07T01:06:23;3.30;99.90
4249;DHT22;8404;48.752;12.922;2022-12-07T01:08:52;3.30;99.90
4249;DHT22;8404;48.752;12.922;2022-12-07T01:11:22;3.30;99.90
4249;DHT22;8404;48.752;12.922;2022-12-07T01:13:50;3.30;99.90
4249;DHT22;8404;48.752;12.922;2022-12-07T01:16:22;3.30;99.90
4249;DHT22;8404;48.752;12.922;2022-12-07T01:18:52;3.30;99.90
4249;DHT22;8404;48.752;12.922;2022-12-07T01:21:22;3.30;99.90
4249;DHT22;8404;48.752;12.922;2022-12-07T01:23:51;3.30;99.90
4249;DHT22;8404;48.752;12.922;2022-12-07T01:26:21;3.30;99.90
4249;DHT22;8404;48.752;12.922;2022-12-07T01:28:50;3.30;99.90
4249;DHT22;8404;48.752;12.922;2022-12-07T01:31:22;3.30;99.90
4249;DHT22;8404;48.752;12.922;2022-12-07T01:33:52;3.30;99.90
4249;DHT22;8404;48.752;12.922;2022-12-07T01:36:22;3.30;99.90
4249;DHT22;8404;48.752;12.922;2022-12-07T01:38:51;3.30;99.90
4249;DHT22;8404;48.752;12.922;2022-12-07T01:41:23;3.30;99.90
4249;DHT22;8404;48.752;12.922;2022-12-07T01:44:15;3.30;99.90
4249;DHT22;8404;48.752;12.922;2022-12-07T01:46:47;3.40;99.90
4249;DHT22;8404;48.752;12.922;2022-12-07T01:49:21;3.40;99.90
4249;DHT22;8404;48.752;12.922;2022-12-07T01:51:54;3.40;99.90
4249;DHT22;8404;48.752;12.922;2022-12-07T01:54:24;3.40;99.90
4249;DHT22;8404;48.752;12.922;2022-12-07T01:56:54;3.30;99.90
4249;DHT22;8404;48.752;12.922;2022-12-07T01:59:25;3.40;99.90
4249;DHT22;8404;48.752;12.922;2022-12-07T02:01:56;3.30;99.90
4249;DHT22;8404;48.752;12.922;2022-12-07T02:04:24;3.40;99.90
4249;DHT22;8404;48.752;12.922;2022-12-07T02:06:54;3.40;99.90
4249;DHT22;8404;48.752;12.922;2022-12-07T02:09:25;3.40;99.90
4249;DHT22;8404;48.752;12.922;2022-12-07T02:11:54;3.40;99.90
4249;DHT22;8404;48.752;12.922;2022-12-07T02:14:22;3.40;99.90
4249;DHT22;8404;48.752;12.922;2022-12-07T02:17:05;3.30;99.90
4249;DHT22;8404;48.752;12.922;2022-12-07T02:19:58;3.30;99.90
4249;DHT22;8404;48.752;12.922;2022-12-07T02:23:03;3.30;99.90
4249;DHT22;8404;48.752;12.922;2022-12-07T02:25:58;3.30;99.90
4249;DHT22;8404;48.752;12.922;2022-12-07T02:28:33;3.30;99.90
4249;DHT22;8404;48.752;12.922;2022-12-07T02:31:07;3.30;99.90
4249;DHT22;8404;48.752;12.922;2022-12-07T02:33:40;3.30;99.90
4249;DHT22;8404;48.752;12.922;2022-12-07T02:36:12;3.30;99.90
4249;DHT22;8404;48.752;12.922;2022-12-07T02:38:47;3.30;99.90
4249;DHT22;8404;48.752;12.922;2022-12-07T02:41:22;3.30;99.90
4249;DHT22;8404;48.752;12.922;2022-12-07T02:43:54;3.20;99.90
4249;DHT22;8404;48.752;12.922;2022-12-07T02:46:28;3.20;99.90
4249;DHT22;8404;48.752;12.922;2022-12-07T02:48:58;3.20;99.90
4249;DHT22;8404;48.752;12.922;2022-12-07T02:51:30;3.20;99.90
4249;DHT22;8404;48.752;12.922;2022-12-07T02:53:59;3.20;99.90
4249;DHT22;8404;48.752;12.922;2022-12-07T02:56:36;3.20;99.90
4249;DHT22;8404;48.752;12.922;2022-12-07T02:59:15;3.20;99.90
4249;DHT22;8404;48.752;12.922;2022-12-07T03:01:52;3.20;99.90
4249;DHT22;8404;48.752;12.922;2022-12-07T03:04:32;3.20;99.90
4249;DHT22;8404;48.752;12.922;2022-12-07T03:07:11;3.20;99.90
4249;DHT22;8404;48.752;12.922;2022-12-07T03:09:45;3.30;99.90
4249;DHT22;8404;48.752;12.922;2022-12-07T03:12:21;3.30;99.90
4249;DHT22;8404;48.752;12.922;2022-12-07T03:14:56;3.20;99.90
4249;DHT22;8404;48.752;12.922;2022-12-07T03:17:31;3.20;99.90
4249;DHT22;8404;48.752;12.922;2022-12-07T03:20:04;3.30;99.90
4249;DHT22;8404;48.752;12.922;2022-12-07T03:22:35;3.20;99.90
4249;DHT22;8404;48.752;12.922;2022-12-07T03:25:08;3.20;99.90
4249;DHT22;8404;48.752;12.922;2022-12-07T03:27:41;3.20;99.90
4249;DHT22;8404;48.752;12.922;2022-12-07T03:30:14;3.20;99.90
4249;DHT22;8404;48.752;12.922;2022-12-07T03:32:50;3.20;99.90
4249;DHT22;8404;48.752;12.922;2022-12-07T03:35:24;3.20;99.90
4249;DHT22;8404;48.752;12.922;2022-12-07T03:37:55;3.20;99.90
4249;DHT22;8404;48.752;12.922;2022-12-07T03:40:30;3.20;99.90
4249;DHT22;8404;48.752;12.922;2022-12-07T03:43:01;3.20;99.90
4249;DHT22;8404;48.752;12.922;2022-12-07T03:45:36;3.10;99.90
4249;DHT22;8404;48.752;12.922;2022-12-07T03:48:10;3.10;99.90
4249;DHT22;8404;48.752;12.922;2022-12-07T03:50:47;3.10;99.90
4249;DHT22;8404;48.752;12.922;2022-12-07T03:53:20;3.10;99.90
4249;DHT22;8404;48.752;12.922;2022-12-07T03:55:49;3.20;99.90
4249;DHT22;8404;48.752;12.922;2022-12-07T03:58:20;3.10;99.90
4249;DHT22;8404;48.752;12.922;2022-12-07T04:00:50;3.10;99.90
4249;DHT22;8404;48.752;12.922;2022-12-07T04:03:20;3.10;99.90
4249;DHT22;8404;48.752;12.922;2022-12-07T04:05:48;3.10;99.90
4249;DHT22;8404;48.752;12.922;2022-12-07T04:08:16;3.10;99.90
4249;DHT22;8404;48.752;12.922;2022-12-07T04:10:45;3.10;99.90
4249;DHT22;8404;48.752;12.922;2022-12-07T04:13:13;3.10;99.90
4249;DHT22;8404;48.752;12.922;2022-12-07T04:15:41;3.10;99.90
4249;DHT22;8404;48.752;12.922;2022-12-07T04:18:09;3.10;99.90
4249;DHT22;8404;48.752;12.922;2022-12-07T04:23:59;3.10;99.90
4249;DHT22;8404;48.752;12.922;2022-12-07T04:26:27;3.10;99.90
4249;DHT22;8404;48.752;12.922;2022-12-07T04:28:55;3.10;99.90
4249;DHT22;8404;48.752;12.922;2022-12-07T04:31:23;3.00;99.90
4249;DHT22;8404;48.752;12.922;2022-12-07T04:33:51;3.00;99.90
4249;DHT22;8404;48.752;12.922;2022-12-07T04:36:20;3.00;99.90
4249;DHT22;8404;48.752;12.922;2022-12-07T04:38:48;3.00;99.90
4249;DHT22;8404;48.752;12.922;2022-12-07T04:41:17;3.00;99.90
4249;DHT22;8404;48.752;12.922;2022-12-07T04:43:45;3.00;99.90
4249;DHT22;8404;48.752;12.922;2022-12-07T04:46:13;3.00;99.90
4249;DHT22;8404;48.752;12.922;2022-12-07T04:48:41;3.00;99.90
4249;DHT22;8404;48.752;12.922;2022-12-07T04:51:09;3.00;99.90
4249;DHT22;8404;48.752;12.922;2022-12-07T04:53:37;3.00;99.90
4249;DHT22;8404;48.752;12.922;2022-12-07T04:56:06;3.00;99.60
4249;DHT22;8404;48.752;12.922;2022-12-07T04:58:35;3.00;99.70
4249;DHT22;8404;48.752;12.922;2022-12-07T05:01:03;3.00;99.20
4249;DHT22;8404;48.752;12.922;2022-12-07T05:03:31;3.00;99.30
4249;DHT22;8404;48.752;12.922;2022-12-07T05:05:59;3.00;99.60
4249;DHT22;8404;48.752;12.922;2022-12-07T05:08:27;3.00;99.60
4249;DHT22;8404;48.752;12.922;2022-12-07T05:10:56;3.00;99.70
4249;DHT22;8404;48.752;12.922;2022-12-07T05:13:24;3.00;99.60
4249;DHT22;8404;48.752;12.922;2022-12-07T05:15:53;2.90;99.80
4249;DHT22;8404;48.752;12.922;2022-12-07T05:18:21;2.90;99.90
4249;DHT22;8404;48.752;12.922;2022-12-07T05:20:50;2.90;99.90
4249;DHT22;8404;48.752;12.922;2022-12-07T05:23:18;3.00;99.90
4249;DHT22;8404;48.752;12.922;2022-12-07T05:25:47;2.90;99.90
4249;DHT22;8404;48.752;12.922;2022-12-07T05:28:15;2.90;99.90
4249;DHT22;8404;48.752;12.922;2022-12-07T05:30:43;2.90;99.90
4249;DHT22;8404;48.752;12.922;2022-12-07T05:33:12;2.90;99.90
4249;DHT22;8404;48.752;12.922;2022-12-07T05:35:40;2.90;99.90
4249;DHT22;8404;48.752;12.922;2022-12-07T05:38:08;2.90;99.90
4249;DHT22;8404;48.752;12.922;2022-12-07T05:40:36;2.90;99.90
4249;DHT22;8404;48.752;12.922;2022-12-07T05:43:05;2.90;99.90
4249;DHT22;8404;48.752;12.922;2022-12-07T05:45:33;2.90;99.90
4249;DHT22;8404;48.752;12.922;2022-12-07T05:48:01;2.90;99.90
4249;DHT22;8404;48.752;12.922;2022-12-07T05:50:30;2.90;99.90
4249;DHT22;8404;48.752;12.922;2022-12-07T05:53:01;2.80;99.90
4249;DHT22;8404;48.752;12.922;2022-12-07T05:55:30;2.90;99.90
4249;DHT22;8404;48.752;12.922;2022-12-07T05:57:58;2.80;99.90
4249;DHT22;8404;48.752;12.922;2022-12-07T06:00:43;2.80;99.90
4249;DHT22;8404;48.752;12.922;2022-12-07T06:03:16;2.80;99.90
4249;DHT22;8404;48.752;12.922;2022-12-07T06:05:46;2.80;99.90
4249;DHT22;8404;48.752;12.922;2022-12-07T06:08:14;2.70;99.90
4249;DHT22;8404;48.752;12.922;2022-12-07T06:10:42;2.70;99.90
4249;DHT22;8404;48.752;12.922;2022-12-07T06:13:11;2.60;99.90
4249;DHT22;8404;48.752;12.922;2022-12-07T06:15:38;2.60;99.90
4249;DHT22;8404;48.752;12.922;2022-12-07T06:18:06;2.50;99.90
4249;DHT22;8404;48.752;12.922;2022-12-07T06:20:34;2.50;99.90
4249;DHT22;8404;48.752;12.922;2022-12-07T06:23:03;2.50;99.90
4249;DHT22;8404;48.752;12.922;2022-12-07T06:25:31;2.40;99.90
4249;DHT22;8404;48.752;12.922;2022-12-07T06:27:59;2.40;99.90
4249;DHT22;8404;48.752;12.922;2022-12-07T06:30:27;2.30;99.90
4249;DHT22;8404;48.752;12.922;2022-12-07T06:32:56;2.30;99.90
4249;DHT22;8404;48.752;12.922;2022-12-07T06:35:24;2.20;99.90
4249;DHT22;8404;48.752;12.922;2022-12-07T06:37:52;2.20;99.90
4249;DHT22;8404;48.752;12.922;2022-12-07T06:40:21;2.10;99.90
4249;DHT22;8404;48.752;12.922;2022-12-07T06:42:50;2.10;99.90
4249;DHT22;8404;48.752;12.922;2022-12-07T06:45:18;2.00;99.90
4249;DHT22;8404;48.752;12.922;2022-12-07T06:47:46;2.00;99.90
4249;DHT22;8404;48.752;12.922;2022-12-07T06:50:14;2.00;99.90
4249;DHT22;8404;48.752;12.922;2022-12-07T06:52:42;2.00;99.90
4249;DHT22;8404;48.752;12.922;2022-12-07T06:55:10;2.00;99.90
4249;DHT22;8404;48.752;12.922;2022-12-07T06:57:40;1.90;99.90
4249;DHT22;8404;48.752;12.922;2022-12-07T07:00:09;1.90;99.90
4249;DHT22;8404;48.752;12.922;2022-12-07T07:02:45;1.80;99.90
4249;DHT22;8404;48.752;12.922;2022-12-07T07:05:13;1.80;99.90
4249;DHT22;8404;48.752;12.922;2022-12-07T07:07:42;1.80;99.90
4249;DHT22;8404;48.752;12.922;2022-12-07T07:10:30;1.80;99.90
4249;DHT22;8404;48.752;12.922;2022-12-07T07:12:59;1.80;99.90
4249;DHT22;8404;48.752;12.922;2022-12-07T07:15:28;1.80;99.90
4249;DHT22;8404;48.752;12.922;2022-12-07T07:17:56;1.90;99.90
4249;DHT22;8404;48.752;12.922;2022-12-07T07:20:30;1.90;99.90
4249;DHT22;8404;48.752;12.922;2022-12-07T07:22:58;1.90;99.90
4249;DHT22;8404;48.752;12.922;2022-12-07T07:25:26;1.90;99.90
4249;DHT22;8404;48.752;12.922;2022-12-07T07:27:54;1.90;99.90
4249;DHT22;8404;48.752;12.922;2022-12-07T07:30:49;1.90;99.90
4249;DHT22;8404;48.752;12.922;2022-12-07T07:33:18;2.00;99.90
4249;DHT22;8404;48.752;12.922;2022-12-07T07:35:46;2.00;99.90
4249;DHT22;8404;48.752;12.922;2022-12-07T07:38:14;2.00;99.90
4249;DHT22;8404;48.752;12.922;2022-12-07T07:40:42;2.00;99.90
4249;DHT22;8404;48.752;12.922;2022-12-07T07:43:10;2.10;99.90
4249;DHT22;8404;48.752;12.922;2022-12-07T07:45:38;2.10;99.90
4249;DHT22;8404;48.752;12.922;2022-12-07T07:48:08;2.20;99.90
4249;DHT22;8404;48.752;12.922;2022-12-07T07:50:36;2.20;99.90
4249;DHT22;8404;48.752;12.922;2022-12-07T07:53:04;2.30;99.90
4249;DHT22;8404;48.752;12.922;2022-12-07T07:55:32;2.30;99.90
4249;DHT22;8404;48.752;12.922;2022-12-07T07:58:01;2.40;99.90
4249;DHT22;8404;48.752;12.922;2022-12-07T08:00:29;2.40;99.90
4249;DHT22;8404;48.752;12.922;2022-12-07T08:02:57;2.40;99.90
4249;DHT22;8404;48.752;12.922;2022-12-07T08:05:27;2.50;99.90
4249;DHT22;8404;48.752;12.922;2022-12-07T08:07:55;2.50;99.90
4249;DHT22;8404;48.752;12.922;2022-12-07T08:10:25;2.60;99.90
4249;DHT22;8404;48.752;12.922;2022-12-07T08:12:53;2.60;99.90
4249;DHT22;8404;48.752;12.922;2022-12-07T08:15:42;2.70;99.90
4249;DHT22;8404;48.752;12.922;2022-12-07T08:18:11;2.80;99.90
4249;DHT22;8404;48.752;12.922;2022-12-07T08:20:41;2.80;99.90
4249;DHT22;8404;48.752;12.922;2022-12-07T08:23:10;2.90;99.90
4249;DHT22;8404;48.752;12.922;2022-12-07T08:25:39;2.90;99.90
4249;DHT22;8404;48.752;12.922;2022-12-07T08:28:07;3.00;99.90
4249;DHT22;8404;48.752;12.922;2022-12-07T08:30:35;3.00;99.40
4249;DHT22;8404;48.752;12.922;2022-12-07T08:33:03;3.00;99.30
4249;DHT22;8404;48.752;12.922;2022-12-07T08:35:33;3.00;99.40
4249;DHT22;8404;48.752;12.922;2022-12-07T08:38:02;3.00;99.40
4249;DHT22;8404;48.752;12.922;2022-12-07T08:40:31;3.10;99.00
4249;DHT22;8404;48.752;12.922;2022-12-07T08:42:59;3.10;99.20
4249;DHT22;8404;48.752;12.922;2022-12-07T08:45:27;3.10;99.00
4249;DHT22;8404;48.752;12.922;2022-12-07T08:48:01;3.10;98.80
4249;DHT22;8404;48.752;12.922;2022-12-07T08:50:31;3.20;99.20
4249;DHT22;8404;48.752;12.922;2022-12-07T08:53:02;3.20;98.80
4249;DHT22;8404;48.752;12.922;2022-12-07T08:55:31;3.30;98.90
4249;DHT22;8404;48.752;12.922;2022-12-07T08:58:03;3.30;98.80
4249;DHT22;8404;48.752;12.922;2022-12-07T09:00:31;3.30;98.80
4249;DHT22;8404;48.752;12.922;2022-12-07T09:02:59;3.40;98.40
4249;DHT22;8404;48.752;12.922;2022-12-07T09:05:27;3.40;98.40
4249;DHT22;8404;48.752;12.922;2022-12-07T09:07:57;3.50;98.00
4249;DHT22;8404;48.752;12.922;2022-12-07T09:10:29;3.50;97.70
4249;DHT22;8404;48.752;12.922;2022-12-07T09:12:57;3.40;97.90
4249;DHT22;8404;48.752;12.922;2022-12-07T09:15:27;3.40;98.30
4249;DHT22;8404;48.752;12.922;2022-12-07T09:17:55;3.40;97.70
4249;DHT22;8404;48.752;12.922;2022-12-07T09:20:23;3.40;97.50
4249;DHT22;8404;48.752;12.922;2022-12-07T09:22:54;3.30;97.90
4249;DHT22;8404;48.752;12.922;2022-12-07T09:25:22;3.30;98.40
4249;DHT22;8404;48.752;12.922;2022-12-07T09:27:56;3.40;98.10
4249;DHT22;8404;48.752;12.922;2022-12-07T09:30:25;3.40;98.80
4249;DHT22;8404;48.752;12.922;2022-12-07T09:32:54;3.40;98.50
4249;DHT22;8404;48.752;12.922;2022-12-07T09:35:22;3.50;98.70
4249;DHT22;8404;48.752;12.922;2022-12-07T09:37:50;3.50;98.30
4249;DHT22;8404;48.752;12.922;2022-12-07T09:40:21;3.50;98.20
4249;DHT22;8404;48.752;12.922;2022-12-07T09:42:51;3.50;98.00
4249;DHT22;8404;48.752;12.922;2022-12-07T09:45:26;3.50;98.30
4249;DHT22;8404;48.752;12.922;2022-12-07T09:47:54;3.50;97.30
4249;DHT22;8404;48.752;12.922;2022-12-07T09:50:24;3.50;97.30
4249;DHT22;8404;48.752;12.922;2022-12-07T09:53:07;3.50;97.70
4249;DHT22;8404;48.752;12.922;2022-12-07T09:55:36;3.60;97.90
4249;DHT22;8404;48.752;12.922;2022-12-07T09:58:09;3.70;97.00
4249;DHT22;8404;48.752;12.922;2022-12-07T10:00:41;3.70;97.30
4249;DHT22;8404;48.752;12.922;2022-12-07T10:03:10;3.70;96.50
4249;DHT22;8404;48.752;12.922;2022-12-07T10:05:42;3.70;96.50
4249;DHT22;8404;48.752;12.922;2022-12-07T10:08:11;3.70;97.00
4249;DHT22;8404;48.752;12.922;2022-12-07T10:10:40;3.80;96.90
4249;DHT22;8404;48.752;12.922;2022-12-07T10:13:09;3.90;97.10
4249;DHT22;8404;48.752;12.922;2022-12-07T10:15:44;4.00;96.10
4249;DHT22;8404;48.752;12.922;2022-12-07T10:18:21;4.00;95.60
4249;DHT22;8404;48.752;12.922;2022-12-07T10:21:02;4.10;95.00
4249;DHT22;8404;48.752;12.922;2022-12-07T10:23:30;4.20;96.00
4249;DHT22;8404;48.752;12.922;2022-12-07T10:25:58;4.30;95.60
4249;DHT22;8404;48.752;12.922;2022-12-07T10:28:34;4.40;94.80
4249;DHT22;8404;48.752;12.922;2022-12-07T10:31:18;4.40;94.10
4249;DHT22;8404;48.752;12.922;2022-12-07T10:33:53;4.40;94.30
4249;DHT22;8404;48.752;12.922;2022-12-07T10:36:24;4.40;94.40
4249;DHT22;8404;48.752;12.922;2022-12-07T10:38:58;4.40;94.10
4249;DHT22;8404;48.752;12.922;2022-12-07T10:41:28;4.50;94.30
4249;DHT22;8404;48.752;12.922;2022-12-07T10:43:57;4.50;94.30
4249;DHT22;8404;48.752;12.922;2022-12-07T10:50:25;4.50;94.00
4249;DHT22;8404;48.752;12.922;2022-12-07T10:53:36;4.60;95.10
4249;DHT22;8404;48.752;12.922;2022-12-07T10:59:28;4.70;93.90
4249;DHT22;8404;48.752;12.922;2022-12-07T11:02:14;4.70;94.00
4249;DHT22;8404;48.752;12.922;2022-12-07T11:04:59;4.70;93.40
4249;DHT22;8404;48.752;12.922;2022-12-07T11:07:38;4.70;93.20
4249;DHT22;8404;48.752;12.922;2022-12-07T11:10:13;4.70;93.30
4249;DHT22;8404;48.752;12.922;2022-12-07T11:13:09;4.70;93.00
4249;DHT22;8404;48.752;12.922;2022-12-07T11:15:54;4.70;92.90
4249;DHT22;8404;48.752;12.922;2022-12-07T11:18:32;4.70;92.60
4249;DHT22;8404;48.752;12.922;2022-12-07T11:21:09;4.70;93.30
4249;DHT22;8404;48.752;12.922;2022-12-07T11:23:45;4.80;93.10
4249;DHT22;8404;48.752;12.922;2022-12-07T11:26:22;4.90;93.20
4249;DHT22;8404;48.752;12.922;2022-12-07T11:29:09;5.00;91.90
4249;DHT22;8404;48.752;12.922;2022-12-07T11:31:53;5.10;92.00
4249;DHT22;8404;48.752;12.922;2022-12-07T11:34:29;5.10;91.40
4249;DHT22;8404;48.752;12.922;2022-12-07T11:37:02;5.10;90.80
4249;DHT22;8404;48.752;12.922;2022-12-07T11:39:34;5.10;91.00
4249;DHT22;8404;48.752;12.922;2022-12-07T11:42:06;5.10;91.00
4249;DHT22;8404;48.752;12.922;2022-12-07T11:44:38;5.10;91.40
4249;DHT22;8404;48.752;12.922;2022-12-07T11:47:10;5.10;91.20
4249;DHT22;8404;48.752;12.922;2022-12-07T11:49:47;5.10;91.10
4249;DHT22;8404;48.752;12.922;2022-12-07T11:52:24;5.10;91.10
4249;DHT22;8404;48.752;12.922;2022-12-07T11:54:54;5.00;91.10
4249;DHT22;8404;48.752;12.922;2022-12-07T11:57:27;5.00;91.20
4249;DHT22;8404;48.752;12.922;2022-12-07T12:00:02;5.00;89.80
4249;DHT22;8404;48.752;12.922;2022-12-07T12:02:36;5.00;90.00
4249;DHT22;8404;48.752;12.922;2022-12-07T12:05:13;4.90;90.10
4249;DHT22;8404;48.752;12.922;2022-12-07T12:07:44;4.90;90.70
4249;DHT22;8404;48.752;12.922;2022-12-07T12:10:49;4.80;90.60
4249;DHT22;8404;48.752;12.922;2022-12-07T12:13:44;4.80;90.50
4249;DHT22;8404;48.752;12.922;2022-12-07T12:17:07;4.70;90.50
4249;DHT22;8404;48.752;12.922;2022-12-07T12:19:42;4.60;90.60
4249;DHT22;8404;48.752;12.922;2022-12-07T12:22:17;4.60;91.00
4249;DHT22;8404;48.752;12.922;2022-12-07T12:24:48;4.60;90.40
4249;DHT22;8404;48.752;12.922;2022-12-07T12:27:21;4.50;90.80
4249;DHT22;8404;48.752;12.922;2022-12-07T12:29:54;4.50;91.20
4249;DHT22;8404;48.752;12.922;2022-12-07T12:32:32;4.60;90.80
4249;DHT22;8404;48.752;12.922;2022-12-07T12:35:27;4.60;90.70
4249;DHT22;8404;48.752;12.922;2022-12-07T12:38:22;4.60;90.90
4249;DHT22;8404;48.752;12.922;2022-12-07T12:40:52;4.60;91.30
4249;DHT22;8404;48.752;12.922;2022-12-07T12:43:49;4.60;91.50
4249;DHT22;8404;48.752;12.922;2022-12-07T12:46:47;4.70;91.20
4249;DHT22;8404;48.752;12.922;2022-12-07T12:52:48;4.60;90.30
4249;DHT22;8404;48.752;12.922;2022-12-07T12:55:26;4.60;90.80
4249;DHT22;8404;48.752;12.922;2022-12-07T12:58:25;4.60;91.30
4249;DHT22;8404;48.752;12.922;2022-12-07T13:04:03;4.60;90.30
4249;DHT22;8404;48.752;12.922;2022-12-07T13:06:42;4.60;91.10
4249;DHT22;8404;48.752;12.922;2022-12-07T13:09:19;4.60;91.60
4249;DHT22;8404;48.752;12.922;2022-12-07T13:11:57;4.60;91.90
4249;DHT22;8404;48.752;12.922;2022-12-07T13:14:55;4.70;92.00
4249;DHT22;8404;48.752;12.922;2022-12-07T13:17:55;4.70;91.50
4249;DHT22;8404;48.752;12.922;2022-12-07T13:20:50;4.70;91.60
4249;DHT22;8404;48.752;12.922;2022-12-07T13:23:22;4.70;91.70
4249;DHT22;8404;48.752;12.922;2022-12-07T13:25:59;4.70;91.90
4249;DHT22;8404;48.752;12.922;2022-12-07T13:28:36;4.70;92.20
4249;DHT22;8404;48.752;12.922;2022-12-07T13:31:31;4.70;92.40
4249;DHT22;8404;48.752;12.922;2022-12-07T13:34:01;4.80;92.00
4249;DHT22;8404;48.752;12.922;2022-12-07T13:36:31;4.80;92.30
4249;DHT22;8404;48.752;12.922;2022-12-07T13:39:16;4.90;92.40
4249;DHT22;8404;48.752;12.922;2022-12-07T13:41:49;4.90;92.10
4249;DHT22;8404;48.752;12.922;2022-12-07T13:44:20;4.90;92.20
4249;DHT22;8404;48.752;12.922;2022-12-07T13:46:57;4.90;92.00
4249;DHT22;8404;48.752;12.922;2022-12-07T13:49:51;4.90;92.30
4249;DHT22;8404;48.752;12.922;2022-12-07T13:52:22;4.80;92.50
4249;DHT22;8404;48.752;12.922;2022-12-07T13:54:56;4.80;91.60
4249;DHT22;8404;48.752;12.922;2022-12-07T13:57:28;4.80;91.80
4249;DHT22;8404;48.752;12.922;2022-12-07T13:59:59;4.70;92.10
4249;DHT22;8404;48.752;12.922;2022-12-07T14:02:31;4.60;92.20
4249;DHT22;8404;48.752;12.922;2022-12-07T14:05:09;4.50;92.90
4249;DHT22;8404;48.752;12.922;2022-12-07T14:07:49;4.50;93.00
4249;DHT22;8404;48.752;12.922;2022-12-07T14:10:25;4.50;93.20
4249;DHT22;8404;48.752;12.922;2022-12-07T14:12:54;4.50;93.50
4249;DHT22;8404;48.752;12.922;2022-12-07T14:15:28;4.40;93.50
4249;DHT22;8404;48.752;12.922;2022-12-07T14:17:58;4.40;93.30
4249;DHT22;8404;48.752;12.922;2022-12-07T14:20:31;4.40;93.50
4249;DHT22;8404;48.752;12.922;2022-12-07T14:22:59;4.40;94.10
4249;DHT22;8404;48.752;12.922;2022-12-07T14:25:45;4.50;94.30
4249;DHT22;8404;48.752;12.922;2022-12-07T14:28:28;4.50;94.10
4249;DHT22;8404;48.752;12.922;2022-12-07T14:30:58;4.50;94.40
4249;DHT22;8404;48.752;12.922;2022-12-07T14:33:27;4.50;93.80
4249;DHT22;8404;48.752;12.922;2022-12-07T14:35:55;4.50;93.60
4249;DHT22;8404;48.752;12.922;2022-12-07T14:38:25;4.50;93.20
4249;DHT22;8404;48.752;12.922;2022-12-07T14:40:54;4.50;93.20
4249;DHT22;8404;48.752;12.922;2022-12-07T14:43:43;4.40;92.50
4249;DHT22;8404;48.752;12.922;2022-12-07T14:46:33;4.40;92.60
4249;DHT22;8404;48.752;12.922;2022-12-07T14:49:01;4.30;92.70
4249;DHT22;8404;48.752;12.922;2022-12-07T14:51:49;4.30;92.90
4249;DHT22;8404;48.752;12.922;2022-12-07T14:54:37;4.30;92.90
4249;DHT22;8404;48.752;12.922;2022-12-07T14:57:08;4.30;93.20
4249;DHT22;8404;48.752;12.922;2022-12-07T14:59:36;4.30;93.20
4249;DHT22;8404;48.752;12.922;2022-12-07T15:02:13;4.30;93.40
4249;DHT22;8404;48.752;12.922;2022-12-07T15:04:42;4.30;93.40
4249;DHT22;8404;48.752;12.922;2022-12-07T15:07:19;4.30;93.40
4249;DHT22;8404;48.752;12.922;2022-12-07T15:09:48;4.30;92.90
4249;DHT22;8404;48.752;12.922;2022-12-07T15:12:16;4.30;92.90
4249;DHT22;8404;48.752;12.922;2022-12-07T15:14:44;4.30;93.30
4249;DHT22;8404;48.752;12.922;2022-12-07T15:17:13;4.20;92.50
4249;DHT22;8404;48.752;12.922;2022-12-07T15:19:57;4.30;92.50
4249;DHT22;8404;48.752;12.922;2022-12-07T15:22:25;4.20;92.60
4249;DHT22;8404;48.752;12.922;2022-12-07T15:24:53;4.20;92.80
4249;DHT22;8404;48.752;12.922;2022-12-07T15:27:21;4.10;93.10
4249;DHT22;8404;48.752;12.922;2022-12-07T15:29:49;4.10;93.20
4249;DHT22;8404;48.752;12.922;2022-12-07T15:32:18;4.10;93.50
4249;DHT22;8404;48.752;12.922;2022-12-07T15:34:47;4.10;93.60
4249;DHT22;8404;48.752;12.922;2022-12-07T15:37:16;4.10;93.30
4249;DHT22;8404;48.752;12.922;2022-12-07T15:39:44;4.10;93.50
4249;DHT22;8404;48.752;12.922;2022-12-07T15:42:12;4.10;93.30
4249;DHT22;8404;48.752;12.922;2022-12-07T15:44:41;4.10;93.20
4249;DHT22;8404;48.752;12.922;2022-12-07T15:47:28;4.10;93.20
4249;DHT22;8404;48.752;12.922;2022-12-07T15:49:57;4.10;93.40
4249;DHT22;8404;48.752;12.922;2022-12-07T15:52:25;4.10;93.50
4249;DHT22;8404;48.752;12.922;2022-12-07T15:54:53;4.10;93.20
4249;DHT22;8404;48.752;12.922;2022-12-07T15:57:21;4.10;93.10
4249;DHT22;8404;48.752;12.922;2022-12-07T15:59:51;4.10;93.00
4249;DHT22;8404;48.752;12.922;2022-12-07T16:02:20;4.10;93.00
4249;DHT22;8404;48.752;12.922;2022-12-07T16:04:50;4.00;93.00
4249;DHT22;8404;48.752;12.922;2022-12-07T16:07:20;4.00;92.70
4249;DHT22;8404;48.752;12.922;2022-12-07T16:09:51;4.00;92.90
4249;DHT22;8404;48.752;12.922;2022-12-07T16:12:28;4.00;92.90
4249;DHT22;8404;48.752;12.922;2022-12-07T16:14:58;3.90;93.10
4249;DHT22;8404;48.752;12.922;2022-12-07T16:17:27;3.90;93.20
4249;DHT22;8404;48.752;12.922;2022-12-07T16:19:56;3.90;93.30
4249;DHT22;8404;48.752;12.922;2022-12-07T16:22:24;3.90;93.40
4249;DHT22;8404;48.752;12.922;2022-12-07T16:24:52;3.90;93.40
4249;DHT22;8404;48.752;12.922;2022-12-07T16:27:21;3.90;93.30
4249;DHT22;8404;48.752;12.922;2022-12-07T16:29:49;3.90;93.40
4249;DHT22;8404;48.752;12.922;2022-12-07T16:32:17;4.00;93.20
4249;DHT22;8404;48.752;12.922;2022-12-07T16:34:45;3.90;93.20
4249;DHT22;8404;48.752;12.922;2022-12-07T16:37:14;4.00;93.40
4249;DHT22;8404;48.752;12.922;2022-12-07T16:39:42;3.90;93.40
4249;DHT22;8404;48.752;12.922;2022-12-07T16:42:10;4.00;93.70
4249;DHT22;8404;48.752;12.922;2022-12-07T16:44:39;4.00;93.60
4249;DHT22;8404;48.752;12.922;2022-12-07T16:47:08;4.00;93.60
4249;DHT22;8404;48.752;12.922;2022-12-07T16:49:36;4.00;93.50
4249;DHT22;8404;48.752;12.922;2022-12-07T16:52:05;4.00;93.60
4249;DHT22;8404;48.752;12.922;2022-12-07T16:54:50;4.00;93.50